createdAt,value
2023-05-19T00:01:53.699Z,6.90
2023-05-19T00:08:00.964Z,6.80
2023-05-19T00:14:05.478Z,6.70
2023-05-19T00:20:08.747Z,6.50
2023-05-19T00:26:11.662Z,6.40
2023-05-19T00:32:16.980Z,6.30
2023-05-19T00:38:19.409Z,6.20
2023-05-19T00:44:21.667Z,6.20
2023-05-19T00:50:24.417Z,6.20
2023-05-19T00:56:27.275Z,6.30
2023-05-19T01:02:29.963Z,6.20
2023-05-19T01:08:33.429Z,6.20
2023-05-19T01:14:35.828Z,6.20
2023-05-19T01:21:23.560Z,6.40
2023-05-19T01:28:02.945Z,6.50
2023-05-19T01:34:06.857Z,6.60
2023-05-19T01:40:10.086Z,6.70
2023-05-19T01:46:18.495Z,6.90
2023-05-19T01:52:20.842Z,6.90
2023-05-19T01:58:43.157Z,7.00
2023-05-19T02:04:54.760Z,7.10
2023-05-19T02:11:04.078Z,7.10
2023-05-19T02:17:06.651Z,7.10
2023-05-19T02:23:09.271Z,7.10
2023-05-19T02:29:11.607Z,7.20
2023-05-19T02:35:14.238Z,7.20
2023-05-19T02:41:16.547Z,7.10
2023-05-19T02:47:19.032Z,7.10
2023-05-19T02:53:21.344Z,7.10
2023-05-19T02:59:25.628Z,7.10
2023-05-19T03:05:30.066Z,7.00
2023-05-19T03:11:32.548Z,7.10
2023-05-19T03:17:36.486Z,7.00
2023-05-19T03:23:39.000Z,7.00
2023-05-19T03:29:41.877Z,7.00
2023-05-19T03:35:47.037Z,6.90
2023-05-19T03:42:01.611Z,7.00
2023-05-19T03:48:07.482Z,7.10
2023-05-19T03:54:39.949Z,7.20
2023-05-19T04:00:43.262Z,7.30
2023-05-19T04:06:48.145Z,7.30
2023-05-19T04:12:50.455Z,7.50
2023-05-19T04:18:52.744Z,7.50
2023-05-19T04:24:55.079Z,7.60
2023-05-19T04:30:58.828Z,7.80
2023-05-19T04:37:02.631Z,7.90
2023-05-19T04:43:07.280Z,8.20
2023-05-19T04:49:12.448Z,8.60
2023-05-19T04:55:15.290Z,8.90
2023-05-19T05:01:17.802Z,9.20
2023-05-19T05:07:21.588Z,9.60
2023-05-19T05:13:25.638Z,9.80
2023-05-19T05:19:29.210Z,10.00
2023-05-19T05:25:32.396Z,10.20
2023-05-19T05:31:35.084Z,10.60
2023-05-19T05:37:38.255Z,11.00
2023-05-19T05:43:40.826Z,11.50
2023-05-19T05:49:44.055Z,11.90
2023-05-19T05:55:48.122Z,12.00
2023-05-19T06:01:51.443Z,12.60
2023-05-19T06:07:55.219Z,13.10
2023-05-19T06:14:01.247Z,13.20
2023-05-19T06:20:26.356Z,13.40
2023-05-19T06:26:29.373Z,13.80
2023-05-19T06:32:31.752Z,14.30
2023-05-19T06:38:35.543Z,15.00
2023-05-19T06:44:38.125Z,15.60
2023-05-19T06:50:44.832Z,15.50
2023-05-19T06:56:48.379Z,15.20
2023-05-19T07:02:51.033Z,15.30
2023-05-19T07:08:53.888Z,15.60
2023-05-19T07:14:57.031Z,15.70
2023-05-19T07:21:00.211Z,15.80
2023-05-19T07:27:02.976Z,15.90
2023-05-19T07:33:05.346Z,16.10
2023-05-19T07:39:07.725Z,16.30
2023-05-19T07:45:10.766Z,16.50
2023-05-19T07:51:13.311Z,16.50
2023-05-19T07:57:15.968Z,16.60
2023-05-19T08:03:18.576Z,16.90
2023-05-19T08:09:21.090Z,17.30
2023-05-19T08:15:23.545Z,17.50
2023-05-19T08:21:25.998Z,17.00
2023-05-19T08:27:28.405Z,17.50
2023-05-19T08:33:30.832Z,17.80
2023-05-19T08:39:34.276Z,17.80
2023-05-19T08:45:38.730Z,18.10
2023-05-19T08:51:56.317Z,18.50
2023-05-19T08:58:00.851Z,18.90
2023-05-19T09:04:04.223Z,19.50
2023-05-19T09:10:08.909Z,20.10
2023-05-19T09:16:11.768Z,20.20
2023-05-19T09:22:16.406Z,20.80
2023-05-19T09:28:30.655Z,21.40
2023-05-19T09:34:33.002Z,21.40
2023-05-19T09:40:35.518Z,21.30
2023-05-19T09:46:38.104Z,21.40
2023-05-19T09:52:43.625Z,21.60
2023-05-19T09:58:46.183Z,21.70
2023-05-19T10:04:48.735Z,21.40
2023-05-19T10:10:51.332Z,21.60
2023-05-19T10:16:55.862Z,22.00
2023-05-19T10:22:58.541Z,21.80
2023-05-19T10:29:02.201Z,21.20
2023-05-19T10:35:25.697Z,20.60
2023-05-19T10:41:39.894Z,20.90
2023-05-19T13:03:16.102Z,20.30
2023-05-19T13:09:19.108Z,20.00
2023-05-19T13:15:26.582Z,19.80
2023-05-19T13:21:28.885Z,19.70
2023-05-19T13:27:31.258Z,19.40
2023-05-19T13:33:33.690Z,19.30
2023-05-19T13:39:36.469Z,19.10
2023-05-19T13:45:39.225Z,19.00
2023-05-19T13:51:43.476Z,19.20
2023-05-19T13:57:45.782Z,19.40
2023-05-19T14:03:48.285Z,19.30
2023-05-19T14:09:51.974Z,19.30
2023-05-19T14:15:54.366Z,19.40
2023-05-19T14:21:57.536Z,19.70
2023-05-19T14:27:59.958Z,19.70
2023-05-19T14:34:02.221Z,19.90
2023-05-19T14:40:05.123Z,20.10
2023-05-19T14:46:07.516Z,20.60
2023-05-19T14:52:09.889Z,20.40
2023-05-19T14:58:27.715Z,20.20
2023-05-19T15:04:31.454Z,20.30
2023-05-19T15:10:33.994Z,20.10
2023-05-19T15:16:36.470Z,20.00
2023-05-19T15:22:38.849Z,20.20
2023-05-19T15:28:41.273Z,20.10
2023-05-19T15:34:43.637Z,20.30
2023-05-19T15:40:46.619Z,20.30
2023-05-19T15:46:48.941Z,20.10
2023-05-19T15:52:51.267Z,19.80
2023-05-19T15:58:53.612Z,20.10
2023-05-19T16:04:55.994Z,21.00
2023-05-19T16:10:58.299Z,20.60
2023-05-19T16:17:03.330Z,19.90
2023-05-19T16:23:05.741Z,19.40
2023-05-19T16:29:08.106Z,19.20
2023-05-19T16:35:10.892Z,19.00
2023-05-19T16:41:13.273Z,18.90
2023-05-19T16:47:15.974Z,18.60
2023-05-19T16:53:18.431Z,18.40
2023-05-19T16:59:20.856Z,18.40
2023-05-19T17:05:23.318Z,18.70
2023-05-19T17:11:28.412Z,19.50
2023-05-19T17:17:30.990Z,20.20
2023-05-19T17:23:33.674Z,20.70
2023-05-19T17:29:37.660Z,20.50
2023-05-19T17:35:41.425Z,20.10
2023-05-19T17:41:43.951Z,19.20
2023-05-19T17:47:46.397Z,18.70
2023-05-19T17:53:49.001Z,18.40
2023-05-19T17:59:51.667Z,18.10
2023-05-19T18:05:54.455Z,17.70
2023-05-19T18:11:57.413Z,17.60
2023-05-19T18:18:00.242Z,17.30
2023-05-19T18:24:04.409Z,17.10
2023-05-19T18:30:07.301Z,17.00
2023-05-19T18:36:10.053Z,16.70
2023-05-19T18:42:12.455Z,16.30
2023-05-19T18:48:15.645Z,16.00
2023-05-19T18:54:18.256Z,15.90
2023-05-19T19:00:20.706Z,15.20
2023-05-19T19:06:23.429Z,14.60
2023-05-19T19:12:26.261Z,13.90
2023-05-19T19:18:28.793Z,13.40
2023-05-19T19:24:32.258Z,12.90
2023-05-19T19:30:34.973Z,12.50
2023-05-19T19:36:37.770Z,12.10
2023-05-19T19:42:40.426Z,11.80
2023-05-19T19:48:42.747Z,11.50
2023-05-19T19:54:45.104Z,11.20
2023-05-19T20:00:47.372Z,10.90
2023-05-19T20:06:49.798Z,10.70
2023-05-19T20:12:52.237Z,10.60
2023-05-19T20:18:54.574Z,10.50
2023-05-19T20:24:57.061Z,10.40
2023-05-19T20:30:59.343Z,10.20
2023-05-19T20:37:01.763Z,10.20
2023-05-19T20:43:04.229Z,10.10
2023-05-19T20:49:06.610Z,10.20
2023-05-19T20:55:09.047Z,10.10
2023-05-19T21:01:11.503Z,10.10
2023-05-19T21:07:13.898Z,10.00
2023-05-19T21:13:16.318Z,10.00
2023-05-19T21:19:20.569Z,9.90
2023-05-19T21:25:22.997Z,9.90
2023-05-19T21:31:25.451Z,9.70
2023-05-19T21:37:27.821Z,9.60
2023-05-19T21:43:30.160Z,9.60
2023-05-19T21:49:32.480Z,9.50
2023-05-19T21:55:34.971Z,9.30
2023-05-19T22:01:37.573Z,9.10
2023-05-19T22:07:39.905Z,9.00
2023-05-19T22:13:42.500Z,8.90
2023-05-19T22:19:45.946Z,8.80
2023-05-19T22:32:11.837Z,8.70
2023-05-19T22:38:14.227Z,8.70
2023-05-19T22:44:17.109Z,8.60
2023-05-19T22:50:20.059Z,8.60
2023-05-19T22:56:22.645Z,8.50
2023-05-19T23:02:25.080Z,8.70
2023-05-19T23:08:27.476Z,8.70
2023-05-19T23:14:29.757Z,8.60
2023-05-19T23:20:34.203Z,8.60
2023-05-19T23:26:36.590Z,8.60
2023-05-19T23:32:40.860Z,8.60
2023-05-19T23:38:43.367Z,8.50
2023-05-19T23:44:45.640Z,8.50
2023-05-19T23:50:48.054Z,8.50
